Hovedside
METAR-TAF:

METAR-TAF

Lufthavner :

Preston, England

breddegrad: 53-44-42N, lengdegrad: 2-53-02W, høyde over havet: 17 m

Gjeldene værobservasjon

Denne rapporten ble laget for 22 minutter siden, klokken 14:50 UTC
Vind 4 kt fra Nord-nordvest, skiftende mellom Vest-nordvest og Nord-nordøst
Temperatur 19°C
Luftfuktighet 68%
Trykk 1018 hPa
Sikt 10 km eller mer
ingen skyer under 1500 m og ingen bygeskyer

METAR: EGNO 181450Z 33004KT 290V020 CAVOK 19/13 Q1018

Tid: 16:12 (15:12 UTC)

Varsel

Denne rapporten ble laget for 1 time og 11 minutter siden, klokken 14:01 UTC
Varsel gyldig fra 18. klokken 15 UTC til 18. klokken 18 UTC
Vind 8 kt fra Nordvest
Sikt 10 km eller mer
Spredte skyer i en høyde av 3000 ft
Sannsynlighet 40% :
Midlertidig
fra 18. klokken 15 UTC til 18. klokken 17 UTC
Sikt: 9000 m
lett regn,

TAF: EGNO 181401Z 1815/1818 31008KT 9999 SCT030 PROB40 TEMPO 1815/1817 9000 -RA

Værobservasjoner og værvarsel for over 4000 flyplasser (METAR- og TAF-rapporter).

Tilgjengelige stasjoner er representert av de røde og gule prikkene på kartet.

Hold musepekeren over prikken for å se navnet på stasjonen.

Klikk så for å se værobservasjoner og -varsler.

For å forandre kartet kan du klikke på den grønne knappen med svart kryss for å zoome inn, på den grønne knappen med strek for å zoome ut, eller på de grønne pilene for å se tilstøtende kart.


METAR-TAF: